Sapeacu, Brazil
Current Conditions -  °F | °C
As of 7:00 PM on Saturday 25 Oct 2014 (Local Time) from SBSV Reporting Station
Scattered Clouds Scattered Clouds  
Wind Chill: 25°   Ceiling: Unl
Heat Index: 26°   Visibility: 6mi
Dew Point: 20°   Wind: 13mph
Humidity: 74%   Direction: 50°NE
Pressure: 29.91"   Gusts: NA
Location:  12.73°S, 39.18°W
Report Text: SBSV 252200Z 05011KT 9999 SCT017 25/20 Q1013
Loading
Personal Weather Stations






























Interactive Weather Map
Tropical Storm Tracking
New forecast layout! Learn more

10-Day Weather Forecast

Advertisements
Track Severe Weather on mobile